Portada
METAR-TAF:

METAR-TAF

Aeroports :

Benarés, Índia

latitud: 25-27N, longitud: 082-52E, altitud: 81 m

Observació

L'informe es va fer fa 48 minuts, a les 17:30 UTC
Vent calma
Temperatura 25°C
Humitat 89%
Pressió 1011 hPa
Visibilitat: 2500 m
boirina

METAR: VEBN 161730Z 00000KT 2500 BR NSC 25/23 Q1011 NOSIG

Hora: 23:48 (18:18 UTC)

Pronòstic

L'informe es va fer fa 1 hora i 18 minuts, a les 17:00 UTC
Pronòstic vàlid del 16 a les 18 UTC al 17 a les 24 UTC
Vent 3 kt amb direcció variable
Visibilitat: 3000 m
calitja
Evolucionant progressivament
l' 17 a les 03 UTC al 17 a les 05 UTC
Vent 5 kt del Sud/Sud-Oest
Visibilitat: 5000 m
Escasses núvols a una alçada de 10000 ft
calitja
Evolucionant progressivament
l' 17 a les 13 UTC al 17 a les 15 UTC
Vent 3 kt amb direcció variable
Visibilitat: 3000 m
fum

TAF: VEBN 161700Z 1618/1724 VRB03KT 3000 HZ NSC BECMG 1703/1705 21005KT 5000 HZ FEW100 BECMG 1713/1715 VRB03KT 3000 FU

Observacions i pronòstics meteorològics de més de 4000 aeroports (METAR i TAF).

Les estacions disponibles són els punts grocs i vermells al mapa.

Posi el ratolí al punt desitjat per veure el nom de l'estació.

Feu clic per veure les observacions i els pronòstics meteorològics.

Per canviar el mapa: feu clic els botons verds amb una creu de color negre per apropar; al botó verd amb un guió per allunyar la imatge; o en les fletxes verdes per a mapes adjacents.


METAR-TAF: